Latest Weather Observations for Charlton

IDV60801

Issued at 8:31 am EDT Wednesday 1 April 2015 (issued every 30 minutes, with the page automatically refreshed every 10 minutes)

About weather observations | Map of weather stations | Latest weather observations for VIC | Other Formats
Station Details ID: 080128 Name: CHARLTON Lat: -36.28 Lon: 143.33 Height: 131.7 m
Data from the previous 72 hours. | See also: Recent months at Charlton
Date/Time
EDT
Temp
°C
App
Temp
°C
Dew
Point
Rel
Hum
%
Delta-T
°C
Wind Press
QNH
hPa
Press
MSL
hPa
Rain
since 9 am
mm
Dir
 
Spd
km/h
Gust
km/h
Spd
kts
Gust
kts
01/08:30am 18.1 15.1 6.0 45 6.0 NE 11 17 6 9 1019.4 1019.0 0.0
01/08:00am 17.6 14.6 6.2 47 5.6 NE 11 15 6 8 1019.2 1018.8 0.0
01/07:30am 17.7 15.1 5.9 46 5.8 NE 9 13 5 7 1019.1 1018.7 0.0
01/07:00am 18.2 15.2 6.1 45 6.0 NE 11 15 6 8 1018.9 1018.5 0.0
01/06:30am 18.3 15.7 6.2 45 6.0 NE 9 15 5 8 1019.1 1018.7 0.0
01/06:00am 18.4 15.5 6.3 45 6.0 NE 11 15 6 8 1019.1 1018.7 0.0
01/05:30am 18.1 15.7 7.2 49 5.5 NE 9 15 5 8 1019.0 1018.6 0.0
01/05:00am 15.5 13.2 5.7 52 4.7 NE 7 11 4 6 1019.2 1018.8 0.0
01/04:30am 18.1 15.7 7.2 49 5.5 NE 9 11 5 6 1019.4 1019.0 0.0
01/04:00am 18.5 16.2 7.3 48 5.7 NNE 9 13 5 7 1019.7 1019.3 0.0
01/03:30am 18.3 16.0 7.4 49 5.5 NNE 9 13 5 7 1020.1 1019.7 0.0
01/03:00am 17.6 15.2 6.8 49 5.4 NE 9 11 5 6 1020.5 1020.1 0.0
01/02:30am 14.7 12.1 4.1 49 4.9 NE 7 9 4 5 1020.7 1020.3 0.0
01/02:00am 14.6 13.4 4.6 51 4.7 CALM 0 0 0 0 1020.9 1020.5 0.0
01/01:30am 14.7 13.1 4.4 50 4.8 SE 2 6 1 3 1021.2 1020.8 0.0
01/01:00am 14.7 13.4 4.1 49 4.9 CALM 0 0 0 0 1021.4 1021.0 0.0
01/12:30am 15.4 14.2 4.5 48 5.1 CALM 0 0 0 0 1021.3 1020.9 0.0
01/12:00am 15.8 14.5 4.2 46 5.4 CALM 0 0 0 0 1021.5 1021.1 0.0
 
Date/Time
EDT
Temp
°C
App
Temp
°C
Dew
Point
Rel
Hum
%
Delta-T
°C
Wind Press
QNH
hPa
Press
MSL
hPa
Rain
since 9 am
mm
Dir
 
Spd
km/h
Gust
km/h
Spd
kts
Gust
kts
31/11:30pm 16.2 15.1 4.9 47 5.4 CALM 0 0 0 0 1021.7 1021.3 0.0
31/11:00pm 17.2 16.0 4.5 43 6.0 CALM 0 0 0 0 1021.8 1021.4 0.0
31/10:30pm 18.0 15.7 5.9 45 6.0 NE 7 9 4 5 1021.7 1021.3 0.0
31/10:00pm 18.3 17.5 6.5 46 5.9 CALM 0 0 0 0 1021.8 1021.4 0.0
31/09:30pm 18.9 17.9 5.7 42 6.5 CALM 0 0 0 0 1021.7 1021.3 0.0
31/09:00pm 19.8 19.0 6.5 42 6.7 CALM 0 0 0 0 1021.7 1021.3 0.0
31/08:30pm 21.3 20.7 7.2 40 7.3 CALM 0 0 0 0 1021.5 1021.1 0.0
31/08:00pm 22.6 21.7 6.0 34 8.4 CALM 0 0 0 0 1021.5 1021.1 0.0
31/07:30pm 24.7 23.3 5.5 29 9.8 NNE 2 7 1 4 1021.0 1020.6 0.0
31/07:00pm 27.4 26.0 5.6 25 11.3 N 2 7 1 4 1021.0 1020.6 0.0
31/06:30pm 28.8 26.7 5.6 23 12.2 WNW 6 9 3 5 1021.1 1020.7 0.0
31/06:00pm 28.9 26.6 5.7 23 12.2 NW 7 11 4 6 1021.0 1020.6 0.0
31/05:30pm 28.9 26.3 6.3 24 12.0 NNW 9 15 5 8 1020.9 1020.5 0.0
31/05:00pm 28.8 25.8 6.2 24 11.9 NNW 11 20 6 11 1021.1 1020.7 0.0
31/04:30pm 29.2 27.2 7.2 25 11.9 W 7 15 4 8 1021.3 1020.9 0.0
31/04:00pm 29.2 27.1 6.6 24 12.1 WNW 7 15 4 8 1021.6 1021.2 0.0
31/03:30pm 29.1 26.8 7.6 26 11.7 NNW 9 13 5 7 1021.9 1021.5 0.0
31/03:00pm 28.5 26.0 6.6 25 11.6 NW 9 19 5 10 1022.3 1021.9 0.0
31/02:30pm 28.0 25.8 7.8 28 11.0 NNE 9 17 5 9 1022.7 1022.3 0.0
31/02:00pm 27.6 25.3 7.5 28 10.8 N 9 19 5 10 1023.1 1022.7 0.0
31/01:30pm 26.4 24.5 7.4 30 10.1 NE 7 11 4 6 1023.6 1023.2 0.0
31/01:00pm 26.4 24.1 7.4 30 10.1 NNE 9 19 5 10 1024.1 1023.7 0.0
31/12:30pm 25.6 23.2 7.2 31 9.7 NE 9 17 5 9 1024.5 1024.1 0.0
31/12:00pm 25.6 24.0 8.6 34 9.2 NE 7 15 4 8 1025.0 1024.7 0.0
31/11:30am 24.7 22.8 9.0 37 8.5 NE 9 11 5 6 1025.4 1025.1 0.0
31/11:00am 23.9 22.6 9.9 41 7.7 ENE 7 11 4 6 1025.6 1025.3 0.0
31/10:30am 21.7 20.3 9.6 46 6.5 E 7 11 4 6 1026.1 1025.8 0.0
31/10:00am 20.4 19.1 9.9 51 5.6 SE 7 9 4 5 1026.2 1025.9 0.0
31/09:30am 18.1 16.4 10.0 59 4.3 SE 9 11 5 6 1025.9 1025.6 0.0
31/09:00am 15.9 14.1 9.6 66 3.3 SE 9 13 5 7 1025.6 1025.3 0.0
31/08:30am 13.4 12.0 8.9 74 2.3 SE 6 7 3 4 1025.5 1025.2 0.0
31/08:00am 11.1 9.4 8.3 83 1.4 SE 7 9 4 5 1025.3 1025.0 0.0
31/07:30am 10.3 8.7 7.9 85 1.2 SSE 6 7 3 4 1025.2 1024.9 0.0
31/07:00am 10.7 9.1 8.1 84 1.3 S 6 7 3 4 1025.0 1024.7 0.0
31/06:30am 10.7 9.1 7.8 82 1.4 SSE 6 7 3 4 1024.5 1024.1 0.0
31/06:00am 11.2 9.3 7.7 79 1.7 SSE 7 9 4 5 1024.2 1023.8 0.0
31/05:30am 11.8 10.0 8.1 78 1.8 SSE 7 9 4 5 1024.1 1023.7 0.0
31/05:00am 11.9 10.1 7.8 76 2.0 SSE 7 9 4 5 1024.0 1023.6 0.0
31/04:30am 13.0 11.3 8.5 74 2.3 SE 7 9 4 5 1024.0 1023.6 0.0
31/04:00am 13.1 10.7 8.6 74 2.3 SSE 11 13 6 7 1024.1 1023.7 0.0
31/03:30am 12.6 11.2 7.3 70 2.6 SSE 4 7 2 4 1024.3 1023.9 0.0
31/03:00am 14.0 12.3 8.4 69 2.8 SE 7 9 4 5 1024.3 1023.9 0.0
31/02:30am 14.1 13.3 8.3 68 2.9 ESE 2 7 1 4 1024.2 1023.8 0.0
31/02:00am 14.6 13.5 8.3 66 3.2 SSE 4 7 2 4 1024.5 1024.1 0.0
31/01:30am 15.5 13.8 8.5 63 3.6 SSE 7 11 4 6 1024.5 1024.1 0.0
31/01:00am 16.7 14.3 8.7 59 4.1 SSE 11 15 6 8 1024.7 1024.4 0.0
31/12:30am 17.0 14.6 8.7 58 4.3 SSE 11 15 6 8 1024.7 1024.4 0.0
31/12:00am 16.4 14.2 7.9 57 4.3 SSE 9 11 5 6 1024.9 1024.6 0.0
 
Date/Time
EDT
Temp
°C
App
Temp
°C
Dew
Point
Rel
Hum
%
Delta-T
°C
Wind Press
QNH
hPa
Press
MSL
hPa
Rain
since 9 am
mm
Dir
 
Spd
km/h
Gust
km/h
Spd
kts
Gust
kts
30/11:30pm 17.2 14.8 7.0 51 5.1 S 9 13 5 7 1024.6 1024.3 0.0
30/11:00pm 16.3 14.0 5.9 50 5.0 S 7 11 4 6 1024.7 1024.4 0.0
30/10:30pm 16.7 14.9 5.6 48 5.4 SSW 4 11 2 6 1024.6 1024.3 0.0
30/10:00pm 17.5 16.3 4.8 43 6.1 CALM 0 4 0 2 1024.4 1024.0 0.0
30/09:30pm 18.5 17.3 4.7 40 6.7 CALM 0 6 0 3 1024.3 1023.9 0.0
30/09:00pm 19.8 17.4 4.3 36 7.5 SSW 6 7 3 4 1024.1 1023.7 0.0
30/08:30pm 21.4 18.9 4.9 34 8.2 SW 7 11 4 6 1023.9 1023.5 0.0
30/08:00pm 22.1 19.8 5.5 34 8.3 SW 7 9 4 5 1023.5 1023.1 0.0
30/07:30pm 23.3 21.2 6.6 34 8.6 SW 7 11 4 6 1023.2 1022.8 0.0
30/07:00pm 24.9 22.5 7.1 32 9.3 SW 9 11 5 6 1023.0 1022.6 0.0
30/06:30pm 26.2 24.0 7.7 31 9.9 WSW 9 13 5 7 1022.7 1022.3 0.0
30/06:00pm 26.3 23.7 7.8 31 9.9 WSW 11 17 6 9 1022.5 1022.1 0.0
30/05:30pm 26.8 24.5 7.3 29 10.4 WNW 9 15 5 8 1022.3 1021.9 0.0
30/05:00pm 27.4 24.8 7.8 29 10.6 SSW 11 20 6 11 1022.3 1021.9 0.0
30/04:30pm 27.1 24.1 7.5 29 10.5 WSW 13 26 7 14 1022.4 1022.0 0.0
30/04:00pm 27.0 24.0 7.5 29 10.4 WSW 13 20 7 11 1022.5 1022.1 0.0
30/03:30pm 27.3 24.2 7.2 28 10.8 WSW 13 22 7 12 1022.6 1022.2 0.0
30/03:00pm 26.4 23.2 6.9 29 10.3 W 13 24 7 13 1022.7 1022.3 0.0
30/02:30pm 26.4 22.7 6.4 28 10.5 WNW 15 22 8 12 1023.1 1022.7 0.0
30/02:00pm 26.7 24.1 7.7 30 10.2 WNW 11 17 6 9 1023.5 1023.1 0.0
30/01:30pm 25.5 22.6 6.7 30 9.9 W 11 19 6 10 1023.8 1023.4 0.0
30/01:00pm 25.6 23.2 7.2 31 9.7 WNW 9 15 5 8 1024.2 1023.8 0.0
30/12:30pm 24.7 22.4 7.4 33 9.2 WNW 9 15 5 8 1024.5 1024.1 0.0
30/12:00pm 24.0 22.1 7.6 35 8.6 WNW 7 11 4 6 1024.6 1024.3 0.0
30/11:30am 22.9 21.0 7.4 37 8.1 WSW 7 13 4 7 1024.9 1024.6 0.0
30/11:00am 22.0 20.1 7.4 39 7.6 WSW 7 11 4 6 1025.1 1024.8 0.0
30/10:30am 21.0 19.4 8.0 43 6.8 WSW 6 9 3 5 1024.9 1024.6 0.0
30/10:00am 19.9 18.3 7.9 46 6.2 ENE 6 9 3 5 1024.5 1024.1 0.0
30/09:30am 18.2 17.0 8.2 52 5.2 ENE 4 7 2 4 1024.3 1023.9 0.0
30/09:00am 14.8 14.2 7.6 62 3.6 CALM 0 0 0 0 1024.0 1023.6 0.0
30/08:30am 12.8 12.3 7.9 72 2.4 CALM 0 0 0 0 1023.8 1023.4 0.0
30/08:00am 10.4 9.3 6.7 78 1.7 S 2 6 1 3 1023.6 1023.2 0.0
30/07:30am 10.1 9.4 6.8 80 1.6 CALM 0 6 0 3 1023.3 1022.9 0.0
30/07:00am 10.4 8.5 6.5 77 1.8 SSE 6 7 3 4 1023.1 1022.7 0.0
30/06:30am 10.3 8.3 6.3 76 1.9 S 6 9 3 5 1022.9 1022.5 0.0
30/06:00am 10.4 8.3 5.8 73 2.1 SSE 6 7 3 4 1022.7 1022.3 0.0
30/05:30am 10.7 8.7 6.3 74 2.1 SSE 6 7 3 4 1022.5 1022.1 0.0
30/05:00am 10.9 9.1 5.4 69 2.5 SE 4 7 2 4 1022.4 1022.0 0.0
30/04:30am 11.4 9.1 5.7 68 2.7 ESE 7 7 4 4 1022.3 1021.9 0.0
30/04:00am 11.9 9.9 6.2 68 2.7 E 6 6 3 3 1022.3 1021.9 0.0
30/03:30am 12.9 10.9 6.9 67 2.9 SE 7 11 4 6 1022.3 1021.9 0.0
30/03:00am 12.6 11.5 5.3 61 3.4 CALM 0 0 0 0 1022.5 1022.1 0.0
30/02:30am 12.4 10.0 5.1 61 3.4 S 7 9 4 5 1022.7 1022.3 0.0
30/02:00am 12.7 11.3 3.6 54 4.1 CALM 0 6 0 3 1022.7 1022.3 0.0
30/01:30am 13.2 11.0 3.3 51 4.5 SSW 4 7 2 4 1022.7 1022.3 0.0
30/01:00am 13.4 11.1 2.9 49 4.7 S 4 19 2 10 1022.6 1022.2 0.0
30/12:30am 14.2 12.9 3.9 50 4.7 CALM 0 0 0 0 1022.4 1022.0 0.0
30/12:00am 14.6 13.2 3.4 47 5.1 CALM 0 0 0 0 1022.5 1022.1 0.0
 
Date/Time
EDT
Temp
°C
App
Temp
°C
Dew
Point
Rel
Hum
%
Delta-T
°C
Wind Press
QNH
hPa
Press
MSL
hPa
Rain
since 9 am
mm
Dir
 
Spd
km/h
Gust
km/h
Spd
kts
Gust
kts
29/11:30pm 15.5 14.1 3.6 45 5.5 CALM 0 0 0 0 1022.6 1022.2 0.0
29/11:00pm 16.4 14.6 3.5 42 6.0 S 2 7 1 4 1022.6 1022.2 0.0
29/10:30pm 17.1 15.7 3.8 41 6.2 CALM 0 0 0 0 1022.6 1022.2 0.0
29/10:00pm 17.7 15.1 3.2 38 6.7 S 6 13 3 7 1022.6 1022.2 0.0
29/09:30pm 18.3 15.8 3.8 38 6.9 WSW 6 6 3 3 1022.4 1022.0 0.0
29/09:00pm 19.7 16.9 3.4 34 7.7 WSW 7 11 4 6 1022.1 1021.7 0.0
29/08:30pm 20.7 17.9 3.4 32 8.3 WSW 7 13 4 7 1021.7 1021.3 0.0
29/08:00pm 21.5 17.9 3.2 30 8.7 W 11 17 6 9 1021.5 1021.1 0.0
29/07:30pm 22.6 19.4 3.2 28 9.4 W 9 15 5 8 1021.1 1020.7 0.0
29/07:00pm 23.9 20.7 3.2 26 10.1 W 9 17 5 9 1020.8 1020.4 0.0
29/06:30pm 25.4 22.4 4.0 25 10.7 WNW 9 15 5 8 1020.6 1020.2 0.0
29/06:00pm 26.2 23.2 4.1 24 11.1 WNW 9 13 5 7 1020.4 1020.0 0.0
29/05:30pm 26.2 22.3 3.4 23 11.3 WNW 13 20 7 11 1020.3 1019.9 0.0
29/05:00pm 25.9 21.3 3.8 24 11.0 NW 17 24 9 13 1020.3 1019.9 0.0
29/04:30pm 26.3 22.2 4.1 24 11.2 WNW 15 24 8 13 1020.3 1019.9 0.0
29/04:00pm 26.0 21.8 3.9 24 11.0 WNW 15 26 8 14 1020.4 1020.0 0.0
29/03:30pm 25.8 21.8 4.9 26 10.6 W 15 22 8 12 1020.7 1020.3 0.0
29/03:00pm 25.1 20.7 4.8 27 10.2 NW 17 28 9 15 1021.1 1020.7 0.0
29/02:30pm 24.2 20.7 5.5 30 9.5 NNW 13 20 7 11 1021.4 1021.0 0.0
29/02:00pm 24.3 20.9 6.1 31 9.3 NNW 13 20 7 11 1021.7 1021.3 0.0
29/01:30pm 24.3 21.1 7.0 33 9.1 NW 13 22 7 12 1022.2 1021.8 0.0
29/01:00pm 23.2 19.5 6.5 34 8.6 NW 15 22 8 12 1022.7 1022.3 0.0
29/12:30pm 22.6 19.8 6.8 36 8.2 NW 11 19 6 10 1023.1 1022.7 0.0
29/12:00pm 22.0 20.0 7.0 38 7.7 NW 7 17 4 9 1023.4 1023.0 0.0
29/11:30am 21.3 18.9 7.2 40 7.3 WNW 9 17 5 9 1023.5 1023.1 0.0
29/11:00am 20.4 18.1 7.4 43 6.7 N 9 15 5 8 1023.6 1023.2 0.0
29/10:30am 18.6 15.8 6.8 46 5.9 NNE 11 17 6 9 1023.7 1023.3 0.0
29/10:00am 17.3 15.0 7.4 52 5.0 NNE 9 15 5 8 1023.8 1023.4 0.0
29/09:30am 15.4 12.6 6.9 57 4.2 NNE 11 15 6 8 1023.6 1023.2 0.0
29/09:00am 13.3 12.4 5.9 61 3.5 CALM 0 0 0 0 1023.4 1023.0 0.0

Other Formats:

Comma delimited format used in spreadsheet applications
http://www.bom.gov.au/fwo/IDV60801/IDV60801.94839.axf

JavaScript Object Notation format (JSON) in row-major order
http://www.bom.gov.au/fwo/IDV60801/IDV60801.94839.json